Sedov — UELO — position and weather

sailwx.info

Track history (hours):
 
Tides and Currents Weather Stations Pressure Air Temp Water Temp Dewpoint Dewpoint Depression Visibility Wind Speed Wind Dir Waves Ship Positions

Sedov (Russia)

Last reported at 2019-Dec-12 05:56 UTC. Time now 2019-Dec-12 07:55 UTC.
Position N 55°19' E 011°02'.

Length 108 m; draft 6.2 m.

Type: Sailing vessel. MMSI: 273510000.

Date/timePositionNaut miles runAvg speedWind from/ knotsBaromVisibWave heightAir tempDewpointWater temp
2019-Dec-12 05:56N 55°19' E 011°02'11 7.4
2019-Dec-12 04:30N 55°09' E 011°03'20 7.8
2019-Dec-12 02:00N 54°50' E 010°53'4 8.0
2019-Dec-12 01:30N 54°46' E 010°53'8 7.6
2019-Dec-12 00:30N 54°40' E 010°60'4 8.6
2019-Dec-12 00:00N 54°38' E 011°06'13 8.8
2019-Dec-11 22:31N 54°32' E 011°27'13 8.4
2019-Dec-11 21:00N 54°26' E 011°47'  
2019-Dec-08 19:38N 55°06' E 018°48'11 4.2
2019-Dec-08 17:00N 54°59' E 019°03'20 5.0
2019-Dec-08 13:01N 54°48' E 019°31'12 6.2
2019-Dec-08 11:01N 54°40' E 019°49'7 7.0
2019-Dec-08 10:00N 54°38' E 020°00'7 7.0
2019-Dec-08 09:00N 54°41' E 020°12'10 1.7
2019-Dec-08 03:28N 54°42' E 020°28'0 0.0
2019-Dec-08 02:52N 54°42' E 020°28'0 0.0
2019-Dec-08 02:28N 54°42' E 020°28'0 0.0
2019-Dec-08 01:28N 54°42' E 020°28'0 0.0
2019-Dec-07 23:58N 54°42' E 020°28'0 0.0
2019-Dec-07 23:25N 54°42' E 020°28'0 0.0
2019-Dec-07 21:28N 54°42' E 020°28'0 0.0
2019-Dec-07 20:28N 54°42' E 020°28'0 0.0
2019-Dec-07 15:28N 54°42' E 020°28'0 0.0
2019-Dec-07 14:28N 54°42' E 020°28'0 0.0
2019-Dec-07 13:49N 54°42' E 020°28'0 0.0
2019-Dec-07 10:22N 54°42' E 020°28'0 0.0
2019-Dec-07 09:28N 54°42' E 020°28'0 0.0
2019-Dec-07 08:25N 54°42' E 020°28'0 0.0
2019-Dec-07 06:58N 54°42' E 020°28'0 0.0
2019-Dec-07 06:25N 54°42' E 020°28'0 0.0
2019-Dec-07 04:28N 54°42' E 020°28'0 0.0
2019-Dec-07 02:58N 54°42' E 020°28'0 0.0
2019-Dec-07 00:43N 54°42' E 020°28'0 0.0
2019-Dec-06 23:52N 54°42' E 020°28'0 0.0
2019-Dec-06 23:28N 54°42' E 020°28'0 0.0
2019-Dec-06 21:28N 54°42' E 020°28'0 0.0
2019-Dec-06 20:58N 54°42' E 020°28'0 0.0
2019-Dec-06 19:58N 54°42' E 020°28'0 0.0
2019-Dec-06 19:28N 54°42' E 020°28'0 0.0
2019-Dec-06 17:58N 54°42' E 020°28'0 0.0
2019-Dec-06 16:58N 54°42' E 020°28'0 0.0
2019-Dec-06 15:58N 54°42' E 020°28'0 0.0
2019-Dec-06 14:28N 54°42' E 020°28'0 0.0
2019-Dec-06 13:58N 54°42' E 020°28'0 0.0
2019-Dec-06 12:58N 54°42' E 020°28'0 0.0
2019-Dec-06 12:22N 54°42' E 020°28'0 0.0
2019-Dec-06 11:55N 54°42' E 020°28'0 0.0
2019-Dec-06 10:58N 54°42' E 020°28'0 0.0
2019-Dec-06 06:58N 54°42' E 020°28'0 0.0
2019-Dec-06 06:28N 54°42' E 020°28'0 0.0
2019-Dec-06 04:28N 54°42' E 020°28'0 0.0
2019-Dec-06 01:55N 54°42' E 020°28'0 0.0
2019-Dec-06 01:28N 54°42' E 020°28'0 0.0
2019-Dec-05 22:28N 54°42' E 020°28'0 0.0
2019-Dec-05 19:28N 54°42' E 020°28'0 0.0
2019-Dec-05 18:25N 54°42' E 020°28'0 0.0
2019-Dec-05 17:25N 54°42' E 020°28'0 0.0
2019-Dec-05 16:25N 54°42' E 020°28'0 0.0
2019-Dec-05 15:28N 54°42' E 020°28'0 0.0
2019-Dec-05 13:28N 54°42' E 020°28'0 0.0
2019-Dec-05 12:58N 54°42' E 020°28'0 0.0
2019-Dec-05 08:55N 54°42' E 020°28'0 0.0
2019-Dec-05 05:43N 54°42' E 020°28'0 0.0
2019-Dec-05 05:28N 54°42' E 020°28'0 0.0
2019-Dec-05 04:58N 54°42' E 020°28'0 0.0
2019-Dec-05 01:49N 54°42' E 020°28'0 0.0
2019-Dec-05 00:43N 54°42' E 020°28'0 0.0
2019-Dec-04 18:52N 54°42' E 020°28'0 0.0
2019-Dec-04 16:58N 54°42' E 020°28'0 0.0
2019-Dec-04 11:55N 54°42' E 020°28'0 0.0
2019-Dec-04 09:24N 54°42' E 020°28'0 0.0
2019-Dec-04 08:30N 54°42' E 020°28'0 0.0
2019-Dec-04 06:30N 54°42' E 020°28'0 0.0
2019-Dec-04 05:30N 54°42' E 020°28'0 0.0
2019-Dec-04 04:57N 54°42' E 020°28'0 0.0
2019-Dec-04 04:00N 54°42' E 020°28'0 0.0
2019-Dec-04 03:30N 54°42' E 020°28'0 0.0
2019-Dec-04 02:30N 54°42' E 020°28'0 0.0
2019-Dec-04 01:54N 54°42' E 020°28'0 0.0
2019-Dec-04 00:27N 54°42' E 020°28'0 0.0
2019-Dec-03 23:27N 54°42' E 020°28'0 0.0
2019-Dec-03 21:27N 54°42' E 020°28'0 0.0
2019-Dec-03 21:00N 54°42' E 020°28'0 0.0
2019-Dec-03 20:27N 54°42' E 020°28'0 0.0
2019-Dec-03 20:01N 54°42' E 020°28'11 3.5
2019-Dec-03 16:47N 54°40' E 020°09'0 0.0
2019-Dec-03 14:51N 54°40' E 020°09'0 0.0
2019-Dec-03 13:28N 54°40' E 020°09'0 0.0
2019-Dec-03 11:28N 54°40' E 020°09'0 0.0
2019-Dec-03 09:26N 54°40' E 020°09'0 0.0
2019-Dec-03 08:56N 54°40' E 020°09'0 0.0
2019-Dec-03 08:12N 54°40' E 020°09'0 0.0
2019-Dec-03 07:30N 54°40' E 020°09'0 0.0
2019-Dec-03 06:30N 54°40' E 020°09'0 0.0
2019-Dec-03 05:30N 54°40' E 020°09'0 0.0
2019-Dec-03 04:30N 54°40' E 020°09'0 0.0
2019-Dec-03 04:00N 54°40' E 020°09'0 0.0
2019-Dec-03 03:30N 54°40' E 020°09'0 0.0
2019-Dec-03 00:30N 54°40' E 020°09'0 0.0
2019-Dec-02 23:00N 54°40' E 020°09'0 0.0
2019-Dec-02 22:30N 54°40' E 020°09'0 0.0
2019-Dec-02 21:30N 54°40' E 020°09'0 0.0
2019-Dec-02 19:30N 54°40' E 020°09'0 0.0
2019-Dec-02 18:45N 54°40' E 020°09'0 0.0
2019-Dec-02 18:30N 54°40' E 020°09'0 0.0
2019-Dec-02 17:30N 54°40' E 020°09'0 0.0
2019-Dec-02 17:00N 54°40' E 020°09'0 0.0
2019-Dec-02 15:54N 54°40' E 020°09'0 0.0
2019-Dec-02 12:59N 54°40' E 020°09'0 0.0
2019-Dec-02 11:25N 54°40' E 020°09'0 0.0
2019-Dec-02 08:25N 54°40' E 020°09'0 0.0
2019-Dec-02 07:25N 54°40' E 020°09'0 0.0
2019-Dec-02 06:49N 54°40' E 020°09'  
Track history (hours):
 
Tides and Currents Weather Stations Pressure Air Temp Water Temp Dewpoint Dewpoint Depression Visibility Wind Speed Wind Dir Waves Ship Positions

Sedov (Russia)

Last reported at 2019-Dec-12 05:56 UTC. Time now 2019-Dec-12 07:55 UTC.
Position N 55°19' E 011°02'.

Length 108 m; draft 6.2 m.

Type: Sailing vessel. MMSI: 273510000.

Date/timePositionNaut miles runAvg speedWind from/ knotsBaromVisibWave heightAir tempDewpointWater temp
2019-Dec-12 05:56N 55°19' E 011°02'11 7.4
2019-Dec-12 04:30N 55°09' E 011°03'20 7.8
2019-Dec-12 02:00N 54°50' E 010°53'4 8.0
2019-Dec-12 01:30N 54°46' E 010°53'8 7.6
2019-Dec-12 00:30N 54°40' E 010°60'4 8.6
2019-Dec-12 00:00N 54°38' E 011°06'13 8.8
2019-Dec-11 22:31N 54°32' E 011°27'13 8.4
2019-Dec-11 21:00N 54°26' E 011°47'  
2019-Dec-08 19:38N 55°06' E 018°48'11 4.2
2019-Dec-08 17:00N 54°59' E 019°03'20 5.0
2019-Dec-08 13:01N 54°48' E 019°31'12 6.2
2019-Dec-08 11:01N 54°40' E 019°49'7 7.0
2019-Dec-08 10:00N 54°38' E 020°00'7 7.0
2019-Dec-08 09:00N 54°41' E 020°12'10 1.7
2019-Dec-08 03:28N 54°42' E 020°28'0 0.0
2019-Dec-08 02:52N 54°42' E 020°28'0 0.0
2019-Dec-08 02:28N 54°42' E 020°28'0 0.0
2019-Dec-08 01:28N 54°42' E 020°28'0 0.0
2019-Dec-07 23:58N 54°42' E 020°28'0 0.0
2019-Dec-07 23:25N 54°42' E 020°28'0 0.0
2019-Dec-07 21:28N 54°42' E 020°28'0 0.0
2019-Dec-07 20:28N 54°42' E 020°28'0 0.0
2019-Dec-07 15:28N 54°42' E 020°28'0 0.0
2019-Dec-07 14:28N 54°42' E 020°28'0 0.0
2019-Dec-07 13:49N 54°42' E 020°28'0 0.0
2019-Dec-07 10:22N 54°42' E 020°28'0 0.0
2019-Dec-07 09:28N 54°42' E 020°28'0 0.0
2019-Dec-07 08:25N 54°42' E 020°28'0 0.0
2019-Dec-07 06:58N 54°42' E 020°28'0 0.0
2019-Dec-07 06:25N 54°42' E 020°28'0 0.0
2019-Dec-07 04:28N 54°42' E 020°28'0 0.0
2019-Dec-07 02:58N 54°42' E 020°28'0 0.0
2019-Dec-07 00:43N 54°42' E 020°28'0 0.0
2019-Dec-06 23:52N 54°42' E 020°28'0 0.0
2019-Dec-06 23:28N 54°42' E 020°28'0 0.0
2019-Dec-06 21:28N 54°42' E 020°28'0 0.0
2019-Dec-06 20:58N 54°42' E 020°28'0 0.0
2019-Dec-06 19:58N 54°42' E 020°28'0 0.0
2019-Dec-06 19:28N 54°42' E 020°28'0 0.0
2019-Dec-06 17:58N 54°42' E 020°28'0 0.0
2019-Dec-06 16:58N 54°42' E 020°28'0 0.0
2019-Dec-06 15:58N 54°42' E 020°28'0 0.0
2019-Dec-06 14:28N 54°42' E 020°28'0 0.0
2019-Dec-06 13:58N 54°42' E 020°28'0 0.0
2019-Dec-06 12:58N 54°42' E 020°28'0 0.0
2019-Dec-06 12:22N 54°42' E 020°28'0 0.0
2019-Dec-06 11:55N 54°42' E 020°28'0 0.0
2019-Dec-06 10:58N 54°42' E 020°28'0 0.0
2019-Dec-06 06:58N 54°42' E 020°28'0 0.0
2019-Dec-06 06:28N 54°42' E 020°28'0 0.0
2019-Dec-06 04:28N 54°42' E 020°28'0 0.0
2019-Dec-06 01:55N 54°42' E 020°28'0 0.0
2019-Dec-06 01:28N 54°42' E 020°28'0 0.0
2019-Dec-05 22:28N 54°42' E 020°28'0 0.0
2019-Dec-05 19:28N 54°42' E 020°28'0 0.0
2019-Dec-05 18:25N 54°42' E 020°28'0 0.0
2019-Dec-05 17:25N 54°42' E 020°28'0 0.0
2019-Dec-05 16:25N 54°42' E 020°28'0 0.0
2019-Dec-05 15:28N 54°42' E 020°28'0 0.0
2019-Dec-05 13:28N 54°42' E 020°28'0 0.0
2019-Dec-05 12:58N 54°42' E 020°28'0 0.0
2019-Dec-05 08:55N 54°42' E 020°28'0 0.0
2019-Dec-05 05:43N 54°42' E 020°28'0 0.0
2019-Dec-05 05:28N 54°42' E 020°28'0 0.0
2019-Dec-05 04:58N 54°42' E 020°28'0 0.0
2019-Dec-05 01:49N 54°42' E 020°28'0 0.0
2019-Dec-05 00:43N 54°42' E 020°28'0 0.0
2019-Dec-04 18:52N 54°42' E 020°28'0 0.0
2019-Dec-04 16:58N 54°42' E 020°28'0 0.0
2019-Dec-04 11:55N 54°42' E 020°28'0 0.0
2019-Dec-04 09:24N 54°42' E 020°28'0 0.0
2019-Dec-04 08:30N 54°42' E 020°28'0 0.0
2019-Dec-04 06:30N 54°42' E 020°28'0 0.0
2019-Dec-04 05:30N 54°42' E 020°28'0 0.0
2019-Dec-04 04:57N 54°42' E 020°28'0 0.0
2019-Dec-04 04:00N 54°42' E 020°28'0 0.0
2019-Dec-04 03:30N 54°42' E 020°28'0 0.0
2019-Dec-04 02:30N 54°42' E 020°28'0 0.0
2019-Dec-04 01:54N 54°42' E 020°28'0 0.0
2019-Dec-04 00:27N 54°42' E 020°28'0 0.0
2019-Dec-03 23:27N 54°42' E 020°28'0 0.0
2019-Dec-03 21:27N 54°42' E 020°28'0 0.0
2019-Dec-03 21:00N 54°42' E 020°28'0 0.0
2019-Dec-03 20:27N 54°42' E 020°28'0 0.0
2019-Dec-03 20:01N 54°42' E 020°28'11 3.5
2019-Dec-03 16:47N 54°40' E 020°09'0 0.0
2019-Dec-03 14:51N 54°40' E 020°09'0 0.0
2019-Dec-03 13:28N 54°40' E 020°09'0 0.0
2019-Dec-03 11:28N 54°40' E 020°09'0 0.0
2019-Dec-03 09:26N 54°40' E 020°09'0 0.0
2019-Dec-03 08:56N 54°40' E 020°09'0 0.0
2019-Dec-03 08:12N 54°40' E 020°09'0 0.0
2019-Dec-03 07:30N 54°40' E 020°09'0 0.0
2019-Dec-03 06:30N 54°40' E 020°09'0 0.0
2019-Dec-03 05:30N 54°40' E 020°09'0 0.0
2019-Dec-03 04:30N 54°40' E 020°09'0 0.0
2019-Dec-03 04:00N 54°40' E 020°09'0 0.0
2019-Dec-03 03:30N 54°40' E 020°09'0 0.0
2019-Dec-03 00:30N 54°40' E 020°09'0 0.0
2019-Dec-02 23:00N 54°40' E 020°09'0 0.0
2019-Dec-02 22:30N 54°40' E 020°09'0 0.0
2019-Dec-02 21:30N 54°40' E 020°09'0 0.0
2019-Dec-02 19:30N 54°40' E 020°09'0 0.0
2019-Dec-02 18:45N 54°40' E 020°09'0 0.0
2019-Dec-02 18:30N 54°40' E 020°09'0 0.0
2019-Dec-02 17:30N 54°40' E 020°09'0 0.0
2019-Dec-02 17:00N 54°40' E 020°09'0 0.0
2019-Dec-02 15:54N 54°40' E 020°09'0 0.0
2019-Dec-02 12:59N 54°40' E 020°09'0 0.0
2019-Dec-02 11:25N 54°40' E 020°09'0 0.0
2019-Dec-02 08:25N 54°40' E 020°09'0 0.0
2019-Dec-02 07:25N 54°40' E 020°09'0 0.0
2019-Dec-02 06:49N 54°40' E 020°09'  

Dump ship's entire track history